createdAt,value
2022-11-16T05:16:07.822Z,98658.31
2022-11-16T05:18:34.785Z,98657.44
2022-11-16T05:21:03.895Z,98661.00
2022-11-16T05:23:54.257Z,98666.94
2022-11-16T05:26:23.004Z,98667.50
2022-11-16T05:28:50.822Z,98658.22
2022-11-16T05:31:17.413Z,98659.47
2022-11-16T05:33:44.343Z,98668.34
2022-11-16T05:36:12.126Z,98671.91
2022-11-16T05:38:39.619Z,98658.59
2022-11-16T05:41:06.294Z,98664.88
2022-11-16T05:43:38.278Z,98670.06
2022-11-16T05:46:11.926Z,98675.44
2022-11-16T05:48:38.943Z,98681.47
2022-11-16T05:51:06.211Z,98676.91
2022-11-16T05:53:34.146Z,98679.63
2022-11-16T05:56:01.053Z,98678.38
2022-11-16T05:58:28.716Z,98680.25
2022-11-16T06:00:58.147Z,98683.56
2022-11-16T06:03:24.812Z,98676.06
2022-11-16T06:05:55.543Z,98682.94
2022-11-16T06:08:24.575Z,98685.09
2022-11-16T06:10:53.120Z,98676.44
2022-11-16T06:13:19.710Z,98684.31
2022-11-16T06:15:52.291Z,98685.50
2022-11-16T06:18:19.195Z,98678.94
2022-11-16T06:20:47.683Z,98683.78
2022-11-16T06:23:14.236Z,98688.72
2022-11-16T06:25:40.915Z,98694.38
2022-11-16T06:28:09.700Z,98694.66
2022-11-16T06:30:38.446Z,98694.22
2022-11-16T06:33:06.608Z,98698.78
2022-11-16T06:35:34.198Z,98699.03
2022-11-16T06:38:01.059Z,98694.53
2022-11-16T06:40:28.581Z,98698.56
2022-11-16T06:42:57.080Z,98691.84
2022-11-16T06:45:24.422Z,98693.09
2022-11-16T06:47:54.548Z,98702.09
2022-11-16T06:50:27.438Z,98696.91
2022-11-16T06:52:55.181Z,98700.22
2022-11-16T06:55:22.900Z,98698.53
2022-11-16T06:57:51.931Z,98703.28
2022-11-16T07:00:19.167Z,98707.97
2022-11-16T07:02:47.345Z,98710.16
2022-11-16T07:05:17.294Z,98701.22
2022-11-16T07:07:45.107Z,98718.91
2022-11-16T07:10:12.036Z,98732.66
2022-11-16T07:12:38.663Z,98735.72
2022-11-16T07:15:10.719Z,98728.53
2022-11-16T07:17:45.143Z,98729.16
2022-11-16T07:20:12.099Z,98727.47
2022-11-16T07:22:39.440Z,98733.31
2022-11-16T07:25:06.583Z,98738.63
2022-11-16T07:27:49.221Z,98747.06
2022-11-16T07:30:16.096Z,98746.75
2022-11-16T07:32:57.706Z,98751.84
2022-11-16T07:35:44.207Z,98757.63
2022-11-16T07:38:15.387Z,98755.31
2022-11-16T07:40:45.740Z,98755.13
2022-11-16T07:43:15.564Z,98759.50
2022-11-16T07:46:45.396Z,98763.88
2022-11-16T07:48:52.110Z,98764.25
2022-11-16T07:51:38.877Z,98766.25
2022-11-16T07:54:17.989Z,98763.47
2022-11-16T07:56:45.080Z,98764.09
2022-11-16T07:59:11.634Z,98763.25
2022-11-16T08:01:42.949Z,98766.66
2022-11-16T08:04:11.190Z,98767.72
2022-11-16T08:06:38.346Z,98764.09
2022-11-16T08:09:05.052Z,98755.94
2022-11-16T08:11:34.399Z,98755.44
2022-11-16T08:14:00.883Z,98760.13
2022-11-16T08:16:28.013Z,98764.75
2022-11-16T08:19:04.663Z,98762.69
2022-11-16T08:21:31.172Z,98768.78
2022-11-16T08:23:58.871Z,98766.63
2022-11-16T08:26:30.647Z,98771.81
2022-11-16T08:29:03.252Z,98773.13
2022-11-16T08:31:39.583Z,98774.34
2022-11-16T08:34:11.358Z,98784.09
2022-11-16T08:36:41.255Z,98778.53
2022-11-16T08:39:08.637Z,98793.28
2022-11-16T08:41:37.550Z,98795.47
2022-11-16T08:44:08.222Z,98793.09
2022-11-16T08:46:38.158Z,98798.34
2022-11-16T08:49:16.704Z,98794.06
2022-11-16T08:51:43.232Z,98804.97
2022-11-16T08:54:10.327Z,98800.06
2022-11-16T08:56:38.898Z,98805.19
2022-11-16T08:59:05.419Z,98810.94
2022-11-16T09:01:33.002Z,98818.94
2022-11-16T09:04:00.295Z,98834.91
2022-11-16T09:06:28.175Z,98833.66
2022-11-16T09:08:56.474Z,98834.09
2022-11-16T09:11:24.794Z,98831.97
2022-11-16T09:13:53.150Z,98824.50
2022-11-16T09:16:21.039Z,98819.69
2022-11-16T09:18:49.608Z,98817.53
2022-11-16T09:21:21.868Z,98820.31
2022-11-16T09:23:49.156Z,98820.38
2022-11-16T09:26:18.845Z,98823.16
2022-11-16T09:28:47.589Z,98822.56
2022-11-16T09:31:17.581Z,98824.81
2022-11-16T09:33:47.671Z,98832.66
2022-11-16T09:36:15.688Z,98823.53
2022-11-16T09:42:06.554Z,98845.38
2022-11-16T09:44:48.885Z,98842.28
2022-11-16T09:47:21.938Z,98841.94
2022-11-16T09:49:58.139Z,98847.88
2022-11-16T09:52:37.429Z,98852.59
2022-11-16T09:55:22.092Z,98862.81
2022-11-16T09:57:51.462Z,98857.25
2022-11-16T10:00:25.094Z,98858.25
2022-11-16T10:03:05.653Z,98851.22
2022-11-16T10:05:57.004Z,98851.38
2022-11-16T10:08:41.884Z,98858.50
2022-11-16T10:11:27.323Z,98864.03
2022-11-16T10:14:15.509Z,98861.88
2022-11-16T10:16:50.842Z,98861.81
2022-11-16T10:19:46.666Z,98856.41
2022-11-16T10:22:56.523Z,98854.00
2022-11-16T10:25:32.883Z,98849.94
2022-11-16T10:28:34.396Z,98848.81
2022-11-16T10:31:50.943Z,98852.22
2022-11-16T10:34:25.171Z,98845.88
2022-11-16T10:36:56.386Z,98844.94
2022-11-16T10:39:24.899Z,98842.69
2022-11-16T10:41:51.653Z,98846.94
2022-11-16T10:44:36.228Z,98840.72
2022-11-16T10:47:11.903Z,98836.13
2022-11-16T10:50:00.600Z,98838.13
2022-11-16T10:52:27.995Z,98835.56
2022-11-16T10:54:54.696Z,98833.47
2022-11-16T10:57:23.735Z,98831.22
2022-11-16T11:00:00.239Z,98818.78
2022-11-16T11:02:35.141Z,98827.63
2022-11-16T11:05:06.552Z,98823.97
2022-11-16T11:07:36.151Z,98817.94
2022-11-16T11:10:03.467Z,98806.81
2022-11-16T11:12:38.994Z,98808.66
2022-11-16T11:15:05.966Z,98811.16
2022-11-16T11:17:35.405Z,98813.09
2022-11-16T11:20:19.536Z,98816.22
2022-11-16T11:22:59.392Z,98820.81
2022-11-16T11:25:38.609Z,98812.72
2022-11-16T11:28:16.701Z,98809.84
2022-11-16T11:31:01.363Z,98819.47
2022-11-16T11:33:35.322Z,98822.00
2022-11-16T11:36:20.769Z,98808.78
2022-11-16T11:39:05.916Z,98816.56
2022-11-16T11:41:39.168Z,98816.53
2022-11-16T11:44:12.504Z,98815.53
2022-11-16T11:49:38.284Z,98805.69
2022-11-16T11:52:08.816Z,98804.84
2022-11-16T11:54:45.982Z,98802.22
2022-11-16T11:57:20.480Z,98805.00
2022-11-16T11:59:48.005Z,98799.94
2022-11-16T12:02:52.340Z,98794.19
2022-11-16T12:05:50.272Z,98784.34
2022-11-16T12:08:25.782Z,98795.63
2022-11-16T12:11:04.671Z,98786.13
2022-11-16T12:13:51.033Z,98791.50
2022-11-16T12:16:29.587Z,98783.00
2022-11-16T12:19:33.061Z,98775.69
2022-11-16T12:22:14.919Z,98778.06
2022-11-16T12:24:57.091Z,98770.44
2022-11-16T12:27:37.277Z,98778.47
2022-11-16T12:30:21.021Z,98768.66
2022-11-16T12:33:04.956Z,98766.09
2022-11-16T12:35:52.023Z,98764.69
2022-11-16T12:39:20.442Z,98755.72
2022-11-16T12:41:58.044Z,98772.97
2022-11-16T12:44:52.218Z,98762.59
2022-11-16T12:47:47.339Z,98763.56
2022-11-16T12:50:38.997Z,98756.75
2022-11-16T12:54:01.262Z,98758.84
2022-11-16T12:56:54.886Z,98751.00
2022-11-16T12:59:52.324Z,98745.06
2022-11-16T13:02:54.129Z,98743.38
2022-11-16T13:05:40.041Z,98738.34
2022-11-16T13:08:19.221Z,98730.53
2022-11-16T13:10:50.904Z,98736.78
2022-11-16T13:13:37.423Z,98731.59
2022-11-16T13:16:06.427Z,98733.25
2022-11-16T13:18:35.427Z,98732.91
2022-11-16T13:21:11.493Z,98728.25
2022-11-16T13:23:52.231Z,98728.09
2022-11-16T13:26:54.165Z,98719.38
2022-11-16T13:29:37.551Z,98710.66
2022-11-16T13:32:29.022Z,98703.84
2022-11-16T13:34:56.102Z,98701.81
2022-11-16T13:37:37.940Z,98704.63
2022-11-16T13:40:04.558Z,98705.97
2022-11-16T13:42:38.209Z,98703.22
2022-11-16T13:45:16.635Z,98694.44
2022-11-16T13:47:55.679Z,98695.78
2022-11-16T13:50:37.568Z,98690.34
2022-11-16T13:56:02.898Z,98680.38
2022-11-16T13:58:32.008Z,98681.06
2022-11-16T14:01:02.628Z,98698.19
2022-11-16T14:03:40.329Z,98684.50
2022-11-16T14:06:29.487Z,98681.22
2022-11-16T14:08:57.735Z,98683.00
2022-11-16T14:11:31.921Z,98685.75
2022-11-16T14:14:01.176Z,98673.78
2022-11-16T14:16:29.027Z,98682.63
2022-11-16T14:19:01.252Z,98672.91
2022-11-16T14:21:53.750Z,98665.25
2022-11-16T14:24:26.214Z,98650.34
2022-11-16T14:27:17.618Z,98657.25
2022-11-16T14:30:31.090Z,98661.03
2022-11-16T14:32:58.173Z,98663.81
2022-11-16T14:35:38.893Z,98671.66
2022-11-16T14:38:41.777Z,98672.75
2022-11-16T14:41:23.470Z,98666.72
2022-11-16T14:43:58.979Z,98666.63
2022-11-16T14:46:26.192Z,98666.72
2022-11-16T14:48:55.979Z,98670.19
2022-11-16T14:51:26.699Z,98664.75
2022-11-16T14:53:59.200Z,98669.84
2022-11-16T14:56:25.682Z,98668.34
2022-11-16T14:58:59.573Z,98661.03
2022-11-16T15:01:27.739Z,98662.81
2022-11-16T15:04:04.296Z,98657.16
2022-11-16T15:06:40.085Z,98656.53
2022-11-16T15:09:06.648Z,98660.03
2022-11-16T15:11:56.271Z,98663.00
2022-11-16T15:14:26.932Z,98652.66
2022-11-16T15:16:55.121Z,98655.78
2022-11-16T15:19:22.319Z,98654.97
2022-11-16T15:21:58.403Z,98667.88
2022-11-16T15:24:32.046Z,98666.44
2022-11-16T15:27:36.797Z,98666.25
2022-11-16T15:30:14.752Z,98660.56
2022-11-16T15:32:47.794Z,98659.19
2022-11-16T15:35:28.545Z,98662.81
2022-11-16T15:38:05.272Z,98656.94
2022-11-16T15:40:33.242Z,98647.13
2022-11-16T15:43:02.860Z,98642.25
2022-11-16T15:45:30.310Z,98646.31
2022-11-16T15:48:00.515Z,98646.28
2022-11-16T15:50:27.979Z,98646.66
2022-11-16T15:52:55.574Z,98645.78
2022-11-16T15:55:31.802Z,98640.19
2022-11-16T15:58:12.065Z,98635.59
2022-11-16T16:00:38.783Z,98631.19
2022-11-16T16:03:27.110Z,98619.78
2022-11-16T16:05:54.875Z,98612.53
2022-11-16T16:08:28.551Z,98620.81
2022-11-16T16:11:09.110Z,98619.91
2022-11-16T16:13:42.023Z,98616.25
2022-11-16T16:16:31.563Z,98617.00
2022-11-16T16:19:03.815Z,98613.09
2022-11-16T16:21:46.220Z,98608.94
2022-11-16T16:24:38.369Z,98606.03
2022-11-16T16:27:11.866Z,98599.44
2022-11-16T16:29:38.429Z,98611.66
2022-11-16T16:32:05.208Z,98603.84
2022-11-16T16:34:31.643Z,98613.50
2022-11-16T16:36:58.124Z,98605.88
2022-11-16T16:39:24.586Z,98601.78
2022-11-16T16:41:51.218Z,98605.22
2022-11-16T16:44:17.970Z,98606.66
2022-11-16T16:46:44.470Z,98607.59
2022-11-16T16:49:10.972Z,98606.06
2022-11-16T16:51:37.419Z,98601.91
2022-11-16T16:54:03.905Z,98599.53
2022-11-16T16:56:30.459Z,98601.47
2022-11-16T16:59:48.376Z,98598.06
2022-11-16T17:06:18.698Z,98587.78
2022-11-16T17:08:45.535Z,98588.56
2022-11-16T17:11:14.762Z,98583.22
2022-11-16T17:13:41.934Z,98582.38
2022-11-16T17:16:08.506Z,98575.41
2022-11-16T17:18:35.029Z,98576.25
2022-11-16T17:21:09.358Z,98570.06
2022-11-16T17:23:36.805Z,98562.69
2022-11-16T17:26:08.359Z,98569.28
2022-11-16T17:28:35.288Z,98564.13
2022-11-16T17:31:06.837Z,98563.25
2022-11-16T17:33:39.570Z,98564.59
2022-11-16T17:36:07.801Z,98564.28
2022-11-16T17:38:35.147Z,98563.03
2022-11-16T17:41:12.662Z,98566.56
2022-11-16T17:44:14.034Z,98549.44
2022-11-16T17:50:24.064Z,98551.06
2022-11-16T17:52:50.622Z,98547.72
2022-11-16T17:55:17.178Z,98559.19
2022-11-16T17:57:43.718Z,98543.34
2022-11-16T18:00:10.979Z,98551.38
2022-11-16T18:02:40.592Z,98549.53
2022-11-16T18:05:07.491Z,98547.72
2022-11-16T18:07:38.413Z,98543.50
2022-11-16T18:10:19.379Z,98544.44
2022-11-16T18:12:46.482Z,98541.78
2022-11-16T18:15:27.868Z,98542.59
2022-11-16T18:18:02.878Z,98535.88
2022-11-16T18:20:36.008Z,98534.84
2022-11-16T18:23:06.017Z,98528.66
2022-11-16T18:25:35.244Z,98532.88
2022-11-16T18:28:04.588Z,98532.06
2022-11-16T18:30:33.388Z,98528.50
2022-11-16T18:36:13.362Z,98519.50
2022-11-16T19:03:54.418Z,98494.59
2022-11-16T19:06:35.105Z,98496.13
2022-11-16T19:09:10.398Z,98490.47
2022-11-16T19:11:42.700Z,98484.44
2022-11-16T19:14:24.845Z,98486.38
2022-11-16T19:24:36.622Z,98487.22
2022-11-16T19:35:30.775Z,98495.28
2022-11-16T20:05:29.917Z,98479.47
2022-11-16T20:07:49.521Z,98487.28
2022-11-16T20:10:25.498Z,98485.44
2022-11-16T20:12:52.195Z,98495.88
2022-11-16T20:18:26.547Z,98481.44
2022-11-16T20:22:24.857Z,98469.22
2022-11-16T20:25:05.812Z,98460.59
2022-11-16T20:28:28.832Z,98455.66
2022-11-16T20:31:28.179Z,98454.91
2022-11-16T20:34:14.593Z,98458.34
2022-11-16T20:37:52.277Z,98454.78
2022-11-16T20:47:28.811Z,98454.72
2022-11-16T20:51:01.631Z,98449.00
2022-11-16T20:53:29.030Z,98449.09
2022-11-16T20:55:58.207Z,98440.88
2022-11-16T20:58:30.968Z,98435.94
2022-11-16T21:01:02.851Z,98429.72
2022-11-16T21:03:33.394Z,98417.47
2022-11-16T21:06:10.310Z,98425.38
2022-11-16T21:08:53.924Z,98424.16
2022-11-16T21:11:57.268Z,98421.63
2022-11-16T21:14:28.359Z,98422.56
2022-11-16T21:16:58.269Z,98416.28
2022-11-16T21:19:32.977Z,98418.09
2022-11-16T21:22:01.176Z,98414.16
2022-11-16T21:24:31.173Z,98407.72
2022-11-16T21:27:01.408Z,98399.25
2022-11-16T21:29:36.703Z,98394.59
2022-11-16T21:32:09.553Z,98402.31
2022-11-16T21:34:40.164Z,98393.25
2022-11-16T21:37:16.117Z,98391.81
2022-11-16T21:39:48.321Z,98397.16
2022-11-16T21:42:36.376Z,98393.56
2022-11-16T21:45:17.485Z,98390.94
2022-11-16T21:48:42.395Z,98392.47
2022-11-16T21:58:08.282Z,98381.34
2022-11-16T22:00:41.408Z,98383.97
2022-11-16T22:04:36.138Z,98377.91
2022-11-16T22:07:50.292Z,98388.22
2022-11-16T22:11:00.271Z,98375.91
2022-11-16T22:13:34.819Z,98380.81
2022-11-16T22:17:01.667Z,98370.44
2022-11-16T22:20:07.447Z,98362.28
2022-11-16T22:32:42.857Z,98343.53
2022-11-16T22:46:17.175Z,98329.44
2022-11-16T22:49:42.254Z,98321.44
